Latest Weather Observations for Maatsuyker Island

IDT60801

Issued at 1:01 pm EST Saturday 30 April 2016 (issued every 30 minutes, with the page automatically refreshed every 10 minutes)

About weather observations | Map of weather stations | Latest weather observations for TAS | Other Formats
Station Details ID: 094041 Name: MAATSUYKER ISLAND LIGHTHOUSE Lat: -43.66 Lon: 146.27 Height: 146.5 m
Data from the previous 72 hours. | See also: Recent months at Maatsuyker Island
Date/Time
EST
Temp
°C
App
Temp
°C
Dew
Point
Rel
Hum
%
Delta-T
°C
Wind Press
QNH
hPa
Press
MSL
hPa
Rain
since 9 am
mm
Dir
 
Spd
km/h
Gust
km/h
Spd
kts
Gust
kts
30/12:30pm 17.7 11.0 9.6 59 4.3 NNW 35 46 19 25 1006.6 - 0.0
30/12:00pm 17.5 10.9 10.0 61 4.0 NNW 35 50 19 27 1007.1 1007.1 0.0
30/11:30am 17.4 10.0 9.9 61 4.0 NNW 39 54 21 29 1007.3 - 0.0
30/11:00am 17.0 10.4 10.1 64 3.7 NNW 35 50 19 27 1007.7 - 0.0
30/10:53am 16.8 10.7 10.5 66 3.4 NNW 33 52 18 28 1007.9 - 0.0
30/10:30am 16.2 9.6 10.0 66 3.3 NNW 35 50 19 27 1008.0 - 0.0
30/10:00am 15.9 8.5 10.0 68 3.1 NNW 39 54 21 29 1008.1 - 0.0
30/09:30am 15.8 9.6 10.1 69 3.0 N 33 48 18 26 1008.4 - 0.0
30/09:00am 15.3 9.7 10.0 70 2.8 N 30 43 16 23 1008.5 1008.5 6.4
30/08:30am 15.1 8.9 10.2 72 2.6 N 33 44 18 24 1008.6 - 6.4
30/08:00am 14.7 8.7 10.1 74 2.4 N 32 43 17 23 1008.6 - 6.4
30/07:30am 14.6 8.7 10.4 76 2.2 N 32 44 17 24 1008.5 - 6.4
30/07:00am 14.6 8.7 10.6 77 2.1 N 32 41 17 22 1008.3 - 6.4
30/06:30am 14.5 9.1 10.9 79 1.9 NNW 30 41 16 22 1008.4 - 6.4
30/06:00am 14.5 8.7 10.9 79 1.9 N 32 43 17 23 1008.2 1008.2 6.4
30/05:30am 14.2 8.3 11.0 81 1.7 NNW 33 46 18 25 1008.2 - 6.4
30/05:00am 14.5 7.7 10.7 78 2.0 NNW 37 48 20 26 1008.2 - 6.4
30/04:30am 14.5 8.2 10.9 79 1.9 NNW 35 44 19 24 1008.1 - 6.4
30/04:00am 14.3 8.4 11.1 81 1.7 NNW 33 43 18 23 1008.1 - 6.4
30/03:30am 14.1 8.4 11.7 85 1.3 NNW 33 44 18 24 1008.0 - 6.4
30/03:12am 14.4 8.6 11.6 83 1.5 NNW 33 52 18 28 1008.1 - 6.4
30/03:00am 14.3 7.7 11.3 82 1.6 NNW 37 48 20 26 1008.0 1008.0 6.4
30/02:30am 14.1 8.0 11.9 86 1.2 NNW 35 48 19 26 1008.2 - 6.4
30/02:00am 13.9 8.3 12.1 89 1.0 NNW 33 43 18 23 1008.5 - 6.4
30/01:30am 14.1 8.0 11.7 85 1.3 NNW 35 41 19 22 1008.4 - 6.4
30/01:00am 14.5 8.3 11.3 81 1.7 NNW 35 46 19 25 1008.5 - 6.4
30/12:30am 14.6 8.0 11.5 82 1.7 NNW 37 48 20 26 1008.3 - 6.4
30/12:06am 14.6 8.5 11.8 83 1.5 NNW 35 54 19 29 1008.5 - 6.4
30/12:00am 14.8 7.7 12.1 84 1.5 NNW 41 54 22 29 1008.3 1008.3 6.4
 
Date/Time
EST
Temp
°C
App
Temp
°C
Dew
Point
Rel
Hum
%
Delta-T
°C
Wind Press
QNH
hPa
Press
MSL
hPa
Rain
since 9 am
mm
Dir
 
Spd
km/h
Gust
km/h
Spd
kts
Gust
kts
29/11:30pm 14.9 8.1 11.8 82 1.7 NNW 39 54 21 29 1008.3 - 6.4
29/11:07pm 14.8 7.7 12.1 84 1.5 NNW 41 59 22 32 1008.6 - 6.4
29/11:00pm 14.9 6.8 12.2 84 1.5 NNW 46 59 25 32 1008.2 - 6.4
29/10:30pm 14.8 7.4 12.3 85 1.4 NNW 43 54 23 29 1008.6 - 6.4
29/10:20pm 14.8 7.8 12.4 85 1.3 NNW 41 61 22 33 1008.4 - 6.4
29/10:00pm 14.8 7.4 12.3 85 1.4 NNW 43 57 23 31 1008.4 - 6.4
29/09:47pm 14.7 7.2 12.1 84 1.4 NNW 43 63 23 34 1008.1 - 6.4
29/09:30pm 14.7 8.7 12.0 84 1.5 NNW 35 46 19 25 1008.1 - 6.4
29/09:00pm 14.9 8.6 12.2 84 1.5 NNW 37 50 20 27 1007.7 1007.7 6.4
29/08:30pm 14.9 8.6 12.4 85 1.4 NNW 37 48 20 26 1007.3 - 6.4
29/08:00pm 14.9 8.2 12.4 85 1.4 NNW 39 52 21 28 1006.9 - 6.4
29/07:30pm 14.9 7.3 12.5 85 1.3 NNW 44 59 24 32 1006.7 - 6.4
29/07:00pm 14.8 6.4 12.4 85 1.3 NNW 48 61 26 33 1006.7 - 6.4
29/06:30pm 14.6 6.8 13.0 90 0.9 NNW 46 63 25 34 1006.4 - 6.4
29/06:00pm 14.1 7.9 13.7 97 0.2 NNW 39 57 21 31 1006.7 1006.7 6.4
29/05:58pm 14.2 8.0 13.7 97 0.3 NNW 39 57 21 31 1006.9 - 6.4
29/05:30pm 14.9 9.6 13.1 89 1.0 NNW 33 48 18 26 1006.6 - 3.8
29/05:00pm 15.1 8.6 12.9 87 1.2 NNW 39 50 21 27 1006.6 - 3.6
29/04:30pm 14.9 10.0 13.8 93 0.6 NNW 32 41 17 22 1006.7 - 3.6
29/04:00pm 15.0 10.2 13.9 93 0.6 NNW 32 41 17 22 1007.0 - 3.2
29/03:30pm 15.0 9.6 13.9 93 0.6 N 35 44 19 24 1006.9 - 2.2
29/03:00pm 15.3 10.3 13.9 91 0.8 N 33 43 18 23 1006.8 1006.8 1.4
29/02:35pm 15.8 11.2 13.5 86 1.3 N 30 50 16 27 1006.7 - 0.8
29/02:30pm 15.7 11.1 13.6 87 1.2 N 30 37 16 20 1006.8 - 0.8
29/02:00pm 16.4 12.0 13.0 80 1.9 NNW 28 35 15 19 1006.8 - 0.2
29/01:30pm 16.9 13.9 12.4 75 2.5 NNW 20 32 11 17 1007.4 - 0.2
29/01:00pm 17.1 11.7 12.2 73 2.7 NNW 32 41 17 22 1007.8 - 0.2
29/12:31pm 17.1 11.5 12.2 73 2.7 NNW 33 52 18 28 1008.1 - 0.2
29/12:30pm 17.2 11.2 12.2 72 2.8 NNW 35 52 19 28 1008.0 - 0.2
29/12:29pm 17.2 11.6 12.2 72 2.8 N 33 52 18 28 1008.0 - 0.2
29/12:00pm 16.6 13.2 12.5 77 2.3 N 22 32 12 17 1008.5 1008.5 0.2
29/11:30am 16.3 12.9 12.5 78 2.1 N 22 30 12 16 1009.1 - 0.2
29/11:00am 15.4 12.4 12.5 83 1.6 N 20 28 11 15 1010.1 - 0.2
29/10:30am 15.2 14.1 13.1 87 1.2 N 11 24 6 13 1010.7 - 0.2
29/10:00am 14.5 14.1 12.9 90 0.9 E 7 9 4 5 1011.3 - 0.2
29/09:30am 14.5 13.7 12.9 90 0.9 NNW 9 13 5 7 1011.6 - 0.2
29/09:00am 14.5 12.5 12.7 89 1.0 N 15 20 8 11 1011.6 1011.6 1.4
29/08:30am 14.3 11.3 12.5 89 1.0 NNE 20 32 11 17 1012.0 - 1.2
29/08:00am 13.8 11.9 11.8 88 1.1 N 13 22 7 12 1012.6 - 1.2
29/07:30am 13.9 11.1 11.3 84 1.4 N 17 28 9 15 1012.9 - 0.4
29/07:00am 13.9 11.0 11.1 83 1.5 N 17 24 9 13 1012.9 - 0.2
29/06:30am 14.2 10.8 10.4 78 2.0 N 19 26 10 14 1012.9 - 0.2
29/06:00am 13.9 10.4 10.1 78 2.0 N 19 24 10 13 1013.1 1013.1 0.2
29/05:30am 13.4 9.7 10.1 80 1.7 NNE 20 30 11 16 1013.0 - 0.2
29/05:00am 14.1 10.1 9.0 71 2.6 N 20 33 11 18 1013.6 - 0.0
29/04:30am 14.3 10.1 8.4 67 3.0 NNE 20 28 11 15 1013.7 - 0.0
29/04:00am 14.2 10.8 7.6 64 3.3 NNE 15 22 8 12 1013.7 - 0.0
29/03:30am 13.9 9.7 7.4 65 3.2 NNE 19 24 10 13 1014.0 - 0.0
29/03:00am 13.6 9.7 7.1 65 3.2 NNE 17 24 9 13 1014.4 1014.4 0.0
29/02:30am 13.5 9.1 7.2 65 3.1 NNE 20 26 11 14 1015.0 - 0.0
29/02:00am 13.9 9.3 6.5 61 3.6 NE 20 24 11 13 1015.4 - 0.0
29/01:30am 14.2 10.0 5.8 57 4.0 ENE 17 22 9 12 1015.6 - 0.0
29/01:00am 13.9 9.2 6.0 59 3.8 ENE 20 24 11 13 1016.1 - 0.0
29/12:30am 13.9 9.0 6.7 62 3.5 ENE 22 28 12 15 1016.1 - 0.0
29/12:00am 13.6 9.3 7.1 65 3.2 ENE 19 26 10 14 1016.6 1016.6 0.0
 
Date/Time
EST
Temp
°C
App
Temp
°C
Dew
Point
Rel
Hum
%
Delta-T
°C
Wind Press
QNH
hPa
Press
MSL
hPa
Rain
since 9 am
mm
Dir
 
Spd
km/h
Gust
km/h
Spd
kts
Gust
kts
28/11:30pm 12.9 11.1 9.4 79 1.8 NW 9 19 5 10 1016.9 - 0.0
28/11:00pm 12.6 10.9 9.9 83 1.4 NNW 9 15 5 8 1017.1 - 0.0
28/10:30pm 12.9 11.4 9.2 78 1.9 N 7 15 4 8 1017.5 - 0.0
28/10:00pm 13.1 10.6 6.4 64 3.2 ENE 9 15 5 8 1018.0 - 0.0
28/09:30pm 12.2 9.1 8.8 80 1.7 N 15 17 8 9 1018.3 - 0.0
28/09:00pm 12.4 9.5 9.5 82 1.5 N 15 17 8 9 1018.2 1018.2 0.0
28/08:30pm 12.4 9.5 9.5 82 1.5 N 15 19 8 10 1018.0 - 0.0
28/08:00pm 12.5 9.5 9.4 81 1.6 N 15 19 8 10 1017.8 - 0.0
28/07:30pm 13.2 10.4 10.1 81 1.6 NNW 15 19 8 10 1017.8 - 0.0
28/07:00pm 13.2 10.0 9.9 80 1.7 NNW 17 20 9 11 1017.5 - 0.0
28/06:30pm 13.1 10.2 9.8 80 1.7 NNW 15 22 8 12 1017.3 - 0.0
28/06:00pm 13.5 9.9 9.8 78 1.9 NNW 19 24 10 13 1017.0 1017.0 0.0
28/05:30pm 13.9 8.1 9.4 74 2.3 NNW 30 35 16 19 1016.4 - 0.0
28/05:00pm 13.9 8.0 9.2 73 2.4 NNW 30 33 16 18 1016.1 - 0.0
28/04:30pm 14.5 9.5 9.5 72 2.6 NNW 26 35 14 19 1016.1 - 0.0
28/04:00pm 14.4 7.6 9.1 70 2.7 NNW 35 43 19 23 1015.8 - 0.0
28/03:30pm 14.7 7.9 9.3 70 2.8 NNW 35 41 19 22 1015.6 - 0.0
28/03:00pm 14.6 8.2 9.4 71 2.7 NNW 33 41 18 22 1015.3 1015.4 0.0
28/02:30pm 14.8 7.9 8.9 68 3.0 NW 35 41 19 22 1015.2 - 0.0
28/02:00pm 14.8 8.6 9.2 69 2.9 NW 32 35 17 19 1015.2 - 0.0
28/01:30pm 14.7 8.3 9.3 70 2.8 NW 33 39 18 21 1015.1 - 0.0
28/01:00pm 14.9 8.8 9.9 72 2.6 NW 32 35 17 19 1015.2 - 0.0
28/12:30pm 14.7 9.4 9.9 73 2.5 NW 28 32 15 17 1015.2 - 0.0
28/12:00pm 14.4 9.8 9.6 73 2.5 NW 24 28 13 15 1015.2 1015.3 0.0
28/11:30am 14.2 10.5 10.0 76 2.2 NNW 20 26 11 14 1015.2 - 0.0
28/11:00am 13.7 9.6 10.1 79 1.9 NNW 22 30 12 16 1015.1 - 0.0
28/10:30am 13.7 9.5 9.8 77 2.0 NNW 22 30 12 16 1015.1 - 0.0
28/10:00am 13.4 9.2 9.9 79 1.8 NNW 22 28 12 15 1015.1 - 0.0
28/09:30am 13.1 8.9 9.8 80 1.7 NW 22 28 12 15 1014.9 - 0.0
28/09:00am 12.7 9.4 10.8 88 1.0 NNW 19 24 10 13 1014.8 1014.9 9.2
28/08:30am 12.4 9.3 10.3 87 1.1 NNW 17 24 9 13 1014.5 - 9.2
28/08:00am 12.2 9.2 10.7 90 0.8 N 17 22 9 12 1014.2 - 9.2
28/07:30am 12.4 7.9 9.9 85 1.3 NW 24 30 13 16 1013.8 - 9.2
28/07:00am 12.3 5.6 9.6 83 1.4 NW 35 41 19 22 1013.4 - 9.0
28/06:30am 12.4 5.3 9.7 83 1.4 WNW 37 43 20 23 1013.0 - 8.8
28/06:00am 12.4 4.6 9.7 83 1.4 NW 41 46 22 25 1012.5 1012.5 8.6
28/05:30am 12.4 4.9 9.5 82 1.5 WNW 39 44 21 24 1012.5 - 8.4
28/05:17am 12.5 6.0 10.4 87 1.1 WNW 35 39 19 21 1012.5 - 8.4
28/05:04am 12.3 4.3 10.4 88 1.0 NW 43 46 23 25 1012.1 - 8.4
28/05:00am 12.1 4.9 10.4 89 0.9 WNW 39 50 21 27 1012.1 - 8.4
28/04:48am 12.6 3.6 10.1 85 1.3 NW 48 67 26 36 1012.1 - 8.4
28/04:30am 12.5 3.6 9.2 80 1.7 NW 46 54 25 29 1011.8 - 8.4
28/04:00am 12.6 4.2 10.9 89 0.9 NW 46 52 25 28 1011.5 - 8.4
28/03:30am 12.7 3.6 11.4 92 0.7 NW 50 57 27 31 1011.2 - 7.6
28/03:00am 12.7 4.1 11.8 94 0.5 NW 48 54 26 29 1010.9 1010.9 6.6
28/02:30am 13.1 4.4 12.6 97 0.3 NW 50 59 27 32 1010.7 - 6.0
28/02:00am 12.9 4.1 12.3 96 0.3 NNW 50 59 27 32 1010.4 - 3.6
28/01:30am 12.9 3.0 12.5 97 0.2 NW 56 63 30 34 1010.2 - 3.4
28/01:00am 14.1 3.7 13.6 97 0.3 NW 61 70 33 38 1009.8 - 2.4
28/12:51am 14.2 3.0 13.5 96 0.4 NW 65 72 35 39 1009.8 - 1.8
28/12:42am 15.0 7.4 13.6 91 0.8 NNW 46 67 25 36 1010.0 - 0.6
28/12:30am 15.7 8.2 12.8 83 1.6 NNW 44 56 24 30 1009.8 - 0.6
28/12:00am 15.4 8.1 13.3 87 1.2 NNW 44 57 24 31 1009.7 1009.7 0.4
 
Date/Time
EST
Temp
°C
App
Temp
°C
Dew
Point
Rel
Hum
%
Delta-T
°C
Wind Press
QNH
hPa
Press
MSL
hPa
Rain
since 9 am
mm
Dir
 
Spd
km/h
Gust
km/h
Spd
kts
Gust
kts
27/11:30pm 15.8 7.8 12.4 80 1.9 NNW 46 61 25 33 1009.8 - 0.4
27/11:04pm 16.0 7.6 12.4 79 2.0 NNW 48 70 26 38 1009.5 - 0.4
27/11:00pm 15.9 8.5 13.2 84 1.5 NNW 44 59 24 32 1009.9 - 0.4
27/10:30pm 15.9 8.0 13.8 87 1.2 NNW 48 59 26 32 1009.8 - 0.4
27/10:02pm 16.1 7.0 13.8 86 1.3 NNW 54 72 29 39 1009.3 - 0.2
27/10:00pm 16.0 7.0 13.9 87 1.2 NNW 54 67 29 36 1009.4 - 0.2
27/09:30pm 16.3 5.9 13.7 84 1.5 NNW 61 83 33 45 1008.8 - 0.2
27/09:01pm 17.2 6.1 12.7 75 2.5 NNW 63 83 34 45 1008.1 - 0.0
27/09:00pm 17.1 6.0 12.8 76 2.4 NNW 63 78 34 42 1008.2 1008.2 0.0
27/08:30pm 17.6 8.3 11.8 69 3.2 NNW 52 72 28 39 1008.3 - 0.0
27/08:00pm 18.4 7.6 11.1 62 4.0 NNW 59 85 32 46 1007.6 - 0.0
27/07:30pm 18.8 8.1 10.3 57 4.6 NNW 57 78 31 42 1008.2 - 0.0
27/07:00pm 19.4 8.4 9.0 51 5.5 NNW 57 78 31 42 1008.3 - 0.0
27/06:33pm 19.5 9.8 8.9 50 5.6 NNW 50 69 27 37 1008.1 - 0.0
27/06:30pm 19.6 9.4 8.6 49 5.8 NNW 52 69 28 37 1008.1 - 0.0
27/06:06pm 20.0 7.0 7.4 44 6.5 NNW 65 85 35 46 1007.4 - 0.0
27/06:04pm 19.4 10.7 8.6 49 5.7 NNW 44 67 24 36 1007.6 - 0.0
27/06:00pm 19.3 10.7 8.9 51 5.5 NNW 44 61 24 33 1007.8 1007.8 0.0
27/05:30pm 19.9 9.1 7.5 44 6.4 NNW 54 72 29 39 1007.2 - 0.0
27/05:00pm 20.4 6.9 6.7 41 7.0 NNW 67 87 36 47 1006.5 - 0.0
27/04:30pm 20.4 6.7 7.5 43 6.7 NNW 69 89 37 48 1006.3 - 0.0
27/04:00pm 21.4 7.5 6.6 38 7.6 NNW 69 96 37 52 1006.1 - 0.0
27/03:30pm 21.6 8.9 6.9 38 7.6 NNW 63 83 34 45 1006.4 - 0.0
27/03:00pm 22.3 7.7 6.0 34 8.3 NNW 72 93 39 50 1006.1 1006.1 0.0
27/02:55pm 22.5 8.2 5.8 34 8.5 NNW 70 93 38 50 1005.8 - 0.0
27/02:49pm 22.7 8.1 5.8 33 8.6 NNW 72 87 39 47 1006.2 - 0.0
27/02:32pm 22.1 11.6 7.4 38 7.7 NNW 52 70 28 38 1006.8 - 0.0
27/02:30pm 22.5 11.4 6.4 35 8.3 NNW 54 70 29 38 1006.4 - 0.0
27/02:08pm 22.2 11.9 6.4 36 8.1 NNW 50 76 27 41 1006.6 - 0.0
27/02:00pm 22.7 12.4 6.4 35 8.4 NNW 50 67 27 36 1006.8 - 0.0
27/01:30pm 22.1 11.2 5.7 34 8.3 NNW 52 72 28 39 1006.9 - 0.0

Other Formats:

Comma delimited format used in spreadsheet applications
http://www.bom.gov.au/fwo/IDT60801/IDT60801.94962.axf

JavaScript Object Notation format (JSON) in row-major order
http://www.bom.gov.au/fwo/IDT60801/IDT60801.94962.json